Terminal Aerodrome Forecast
Issued by NWS Greer, SC

Home | Current Version | Previous Version | Text Only | Print | Product List | Glossary On
Versions: 1 2 3 4 5 6 7 8 9 10 11 12 13 14 15 16
000
FTUS42 KGSP 260104 AAA
TAFGSP
TAF AMD
KGSP 260104Z 2601/2624 VRB04KT P6SM VCTS BKN060CB BKN120
      TEMPO 2601/2603 VRB10G17KT 5SM -TSRA BKN045CB
     FM260300 22003KT P6SM FEW250
     FM261500 24003KT P6SM SCT060 PROB30 2620/2623 4SM -TSRA
      BKN060CB=

USA.gov is the U.S. government's official web portal to all federal, state and local government web resources and services.